createdAt,value
2019-01-21T00:00:54.726Z,67.57
2019-01-21T00:01:54.629Z,67.95
2019-01-21T00:02:54.658Z,67.66
2019-01-21T00:03:54.391Z,67.38
2019-01-21T00:04:54.554Z,67.47
2019-01-21T00:05:54.417Z,67.85
2019-01-21T00:06:54.443Z,67.66
2019-01-21T00:07:54.446Z,67.95
2019-01-21T00:08:54.461Z,67.76
2019-01-21T00:09:54.473Z,67.85
2019-01-21T00:10:54.485Z,67.85
2019-01-21T00:11:54.512Z,67.95
2019-01-21T00:12:54.773Z,68.04
2019-01-21T00:13:54.786Z,67.85
2019-01-21T00:14:54.540Z,67.57
2019-01-21T00:15:54.904Z,67.19
2019-01-21T00:16:54.572Z,67.95
2019-01-21T00:17:54.579Z,67.85
2019-01-21T00:18:54.850Z,67.76
2019-01-21T00:19:54.861Z,67.76
2019-01-21T00:20:54.619Z,67.76
2019-01-21T00:21:54.641Z,67.95
2019-01-21T00:22:54.651Z,67.95
2019-01-21T00:23:54.662Z,67.85
2019-01-21T00:24:54.675Z,67.82
2019-01-21T00:25:54.691Z,67.85
2019-01-21T00:26:54.961Z,67.47
2019-01-21T00:27:54.976Z,67.95
2019-01-21T00:28:54.987Z,67
2019-01-21T00:29:54.997Z,67.66
2019-01-21T00:30:55.014Z,67.85
2019-01-21T00:31:55.024Z,67.85
2019-01-21T00:32:54.779Z,67.76
2019-01-21T00:33:55.066Z,67.47
2019-01-21T00:34:54.812Z,67.57
2019-01-21T00:35:54.818Z,67.95
2019-01-21T00:36:54.835Z,67.47
2019-01-21T00:37:54.849Z,67.66
2019-01-21T00:38:54.862Z,67.76
2019-01-21T00:39:54.872Z,67.76
2019-01-21T00:40:54.888Z,67.76
2019-01-21T00:41:54.899Z,67.57
2019-01-21T00:42:55.177Z,67.38
2019-01-21T00:43:55.183Z,67.57
2019-01-21T00:44:55.209Z,67.29
2019-01-21T00:45:55.214Z,67.82
2019-01-21T00:46:54.968Z,67.85
2019-01-21T00:47:55.248Z,67.91
2019-01-21T00:48:55.003Z,67.85
2019-01-21T00:49:55.275Z,67.72
2019-01-21T00:50:55.026Z,67.82
2019-01-21T00:51:55.292Z,67.54
2019-01-21T00:52:55.051Z,67.54
2019-01-21T00:53:55.317Z,67.44
2019-01-21T00:54:55.342Z,67.82
2019-01-21T00:55:55.362Z,67.82
2019-01-21T00:56:55.371Z,67.72
2019-01-21T00:57:55.128Z,67.72
2019-01-21T00:58:55.129Z,67.82
2019-01-21T00:59:55.144Z,67.54
2019-01-21T01:00:55.414Z,67.54
2019-01-21T01:01:55.166Z,67.82
2019-01-21T01:02:55.437Z,67.72
2019-01-21T01:03:55.450Z,67.91
2019-01-21T01:04:55.465Z,67.82
2019-01-21T01:05:55.489Z,67.82
2019-01-21T01:06:55.235Z,67.72
2019-01-21T01:07:55.243Z,67.82
2019-01-21T01:08:55.262Z,67.35
2019-01-21T01:09:55.533Z,67.25
2019-01-21T01:10:55.551Z,67.35
2019-01-21T01:11:55.559Z,67.72
2019-01-21T01:12:55.312Z,67.25
2019-01-21T01:13:55.326Z,67.25
2019-01-21T01:14:55.606Z,67.16
2019-01-21T01:15:55.352Z,67.25
2019-01-21T01:16:55.621Z,67.16
2019-01-21T01:17:55.387Z,67.82
2019-01-21T01:18:55.394Z,67.72
2019-01-21T01:19:55.403Z,67.82
2019-01-21T01:20:55.423Z,67.25
2019-01-21T01:21:55.438Z,67.35
2019-01-21T01:22:55.451Z,67.35
2019-01-21T01:23:55.465Z,67.16
2019-01-21T01:24:55.729Z,67.44
2019-01-21T01:25:55.762Z,67.25
2019-01-21T01:26:55.572Z,67.25
2019-01-21T01:27:55.513Z,67.25
2019-01-21T01:28:55.527Z,67.35
2019-01-21T01:29:55.544Z,67.25
2019-01-21T01:30:55.813Z,67.07
2019-01-21T01:31:55.834Z,67.16
2019-01-21T01:32:55.587Z,67.16
2019-01-21T01:33:55.597Z,67.16
2019-01-21T01:34:55.603Z,67.25
2019-01-21T01:35:55.618Z,67.82
2019-01-21T01:36:55.895Z,67.35
2019-01-21T01:37:55.906Z,67.82
2019-01-21T01:38:55.926Z,67.35
2019-01-21T01:39:55.671Z,67.72
2019-01-21T01:40:55.952Z,67.35
2019-01-21T01:41:55.713Z,67.25
2019-01-21T01:42:55.996Z,67.35
2019-01-21T01:43:55.988Z,67.16
2019-01-21T01:44:55.739Z,67.35
2019-01-21T01:45:56.017Z,67.16
2019-01-21T01:46:56.027Z,67.44
2019-01-21T01:47:56.051Z,67.35
2019-01-21T01:48:56.065Z,67.25
2019-01-21T01:49:56.143Z,67.35
2019-01-21T01:50:55.828Z,67.44
2019-01-21T01:51:55.846Z,67.25
2019-01-21T01:52:56.117Z,67.72
2019-01-21T01:53:56.122Z,67.35
2019-01-21T01:54:55.874Z,67.35
2019-01-21T01:55:55.888Z,67.16
2019-01-21T01:56:55.912Z,67.25
2019-01-21T01:57:56.180Z,67.16
2019-01-21T01:58:56.186Z,67.07
2019-01-21T01:59:55.938Z,67.16
2019-01-21T02:00:55.966Z,67.07
2019-01-21T02:01:56.222Z,67.25
2019-01-21T02:02:55.984Z,66.88
2019-01-21T02:03:55.994Z,67.07
2019-01-21T02:04:56.001Z,67.07
2019-01-21T02:05:56.281Z,67.16
2019-01-21T02:06:56.319Z,66.97
2019-01-21T02:07:56.048Z,66.97
2019-01-21T02:08:56.056Z,67.07
2019-01-21T02:09:56.079Z,66.97
2019-01-21T02:10:56.092Z,67.07
2019-01-21T02:11:56.147Z,67.07
2019-01-21T02:12:56.121Z,67.44
2019-01-21T02:13:56.130Z,67.07
2019-01-21T02:14:56.407Z,67.07
2019-01-21T02:15:56.422Z,66.88
2019-01-21T02:16:56.179Z,67.07
2019-01-21T02:17:56.188Z,66.88
2019-01-21T02:18:56.451Z,66.88
2019-01-21T02:19:56.460Z,67.16
2019-01-21T02:20:56.228Z,67.16
2019-01-21T02:21:56.245Z,66.88
2019-01-21T02:22:56.249Z,66.97
2019-01-21T02:23:56.894Z,67.07
2019-01-21T02:24:56.555Z,67.07
2019-01-21T02:25:56.310Z,66.97
2019-01-21T02:26:56.554Z,66.88
2019-01-21T02:27:56.317Z,66.97
2019-01-21T02:28:56.582Z,67.07
2019-01-21T02:29:56.340Z,66.97
2019-01-21T02:30:56.359Z,67.44
2019-01-21T02:31:56.618Z,66.97
2019-01-21T02:32:56.968Z,67.07
2019-01-21T02:33:56.392Z,67.07
2019-01-21T02:34:56.672Z,66.97
2019-01-21T02:35:56.500Z,67.44
2019-01-21T02:36:56.434Z,67.16
2019-01-21T02:37:56.450Z,67.07
2019-01-21T02:38:56.461Z,67.16
2019-01-21T02:39:56.740Z,67.07
2019-01-21T02:40:56.737Z,66.97
2019-01-21T02:41:56.497Z,66.88
2019-01-21T02:42:56.770Z,67.16
2019-01-21T02:43:56.784Z,67.07
2019-01-21T02:44:56.576Z,67.16
2019-01-21T02:45:56.806Z,66.88
2019-01-21T02:46:56.573Z,67.07
2019-01-21T02:48:02.446Z,67.16
2019-01-21T02:48:56.634Z,67.16
2019-01-21T02:49:57.208Z,67.25
2019-01-21T02:50:56.627Z,67.16
2019-01-21T02:51:56.635Z,67.16
2019-01-21T02:52:56.653Z,66.97
2019-01-21T02:53:56.670Z,67.07
2019-01-21T02:54:56.669Z,67.07
2019-01-21T02:55:56.987Z,67.07
2019-01-21T02:56:56.951Z,66.97
2019-01-21T02:57:57.052Z,66.97
2019-01-21T02:58:56.995Z,66.97
2019-01-21T02:59:56.989Z,67.07
2019-01-21T03:00:56.997Z,67.25
2019-01-21T03:01:57.032Z,66.88
2019-01-21T03:02:57.032Z,67.25
2019-01-21T03:03:57.040Z,66.97
2019-01-21T03:04:56.806Z,67.07
2019-01-21T03:05:56.813Z,66.97
2019-01-21T03:06:57.371Z,66.88
2019-01-21T03:07:56.840Z,67.35
2019-01-21T03:08:56.851Z,66.97
2019-01-21T03:09:57.121Z,66.97
2019-01-21T03:10:56.885Z,66.97
2019-01-21T03:11:57.162Z,67.35
2019-01-21T03:12:57.162Z,67.07
2019-01-21T03:13:56.922Z,66.88
2019-01-21T03:14:57.277Z,67.35
2019-01-21T03:15:56.951Z,66.97
2019-01-21T03:16:56.955Z,66.97
2019-01-21T03:17:56.970Z,66.88
2019-01-21T03:18:56.987Z,66.97
2019-01-21T03:19:56.992Z,67.07
2019-01-21T03:20:57.007Z,67.07
2019-01-21T03:21:57.285Z,67.44
2019-01-21T03:22:57.028Z,67.25
2019-01-21T03:23:57.223Z,67.35
2019-01-21T03:24:57.316Z,67.35
2019-01-21T03:25:57.075Z,67.44
2019-01-21T03:26:57.352Z,67.16
2019-01-21T03:27:57.360Z,67.25
2019-01-21T03:28:57.130Z,67.25
2019-01-21T03:29:57.385Z,67.35
2019-01-21T03:30:57.406Z,67.07
2019-01-21T03:31:57.156Z,66.97
2019-01-21T03:32:57.472Z,66.97
2019-01-21T03:33:57.450Z,67.16
2019-01-21T03:34:57.195Z,66.97
2019-01-21T03:35:57.481Z,66.97
2019-01-21T03:36:57.482Z,66.97
2019-01-21T03:37:57.234Z,66.97
2019-01-21T03:38:57.251Z,66.97
2019-01-21T03:39:57.283Z,67.07
2019-01-21T03:40:57.626Z,67.07
2019-01-21T03:41:57.542Z,67.25
2019-01-21T03:42:57.568Z,66.97
2019-01-21T03:43:57.585Z,66.97
2019-01-21T03:44:57.589Z,67.07
2019-01-21T03:45:57.637Z,67.07
2019-01-21T03:46:57.348Z,67.25
2019-01-21T03:47:57.629Z,67.16
2019-01-21T03:48:57.648Z,67.25
2019-01-21T03:49:57.387Z,67.25
2019-01-21T03:50:57.667Z,67.25
2019-01-21T03:51:57.684Z,66.97
2019-01-21T03:52:57.433Z,66.88
2019-01-21T03:53:57.441Z,66.97
2019-01-21T03:54:57.760Z,67.25
2019-01-21T03:55:57.477Z,66.88
2019-01-21T03:56:57.499Z,67.07
2019-01-21T03:57:58.070Z,67.07
2019-01-21T03:58:57.767Z,66.88
2019-01-21T03:59:57.529Z,67.16
2019-01-21T04:00:57.540Z,66.97
2019-01-21T04:01:57.805Z,67.07
2019-01-21T04:02:57.571Z,67.16
2019-01-21T04:03:57.586Z,67.07
2019-01-21T04:04:57.583Z,66.88
2019-01-21T04:05:57.598Z,67.25
2019-01-21T04:06:57.618Z,67.07
2019-01-21T04:07:59.265Z,67.07
2019-01-21T04:08:57.900Z,67.07
2019-01-21T04:09:57.660Z,67.07
2019-01-21T04:10:57.948Z,67.07
2019-01-21T04:11:57.687Z,66.97
2019-01-21T04:12:57.687Z,67.07
2019-01-21T04:13:57.703Z,66.97
2019-01-21T04:14:58.279Z,66.97
2019-01-21T04:15:57.988Z,66.97
2019-01-21T04:16:57.779Z,66.97
2019-01-21T04:17:57.760Z,66.59
2019-01-21T04:18:57.769Z,67.07
2019-01-21T04:19:58.043Z,66.5
2019-01-21T04:20:58.069Z,66.5
2019-01-21T04:21:57.809Z,66.59
2019-01-21T04:22:58.095Z,66.88
2019-01-21T04:23:58.094Z,66.69
2019-01-21T04:24:57.853Z,66.78
2019-01-21T04:25:57.868Z,66.69
2019-01-21T04:26:58.150Z,66.78
2019-01-21T04:27:57.889Z,66.5
2019-01-21T04:28:57.907Z,66.88
2019-01-21T04:29:58.176Z,66.78
2019-01-21T04:30:58.184Z,66.88
2019-01-21T04:31:58.252Z,66.69
2019-01-21T04:32:57.962Z,66.78
2019-01-21T04:33:58.220Z,67.16
2019-01-21T04:34:57.976Z,66.78
2019-01-21T04:35:57.998Z,66.69
2019-01-21T04:36:58.007Z,66.5
2019-01-21T04:37:58.023Z,66.5
2019-01-21T04:38:58.293Z,66.69
2019-01-21T04:39:58.049Z,66.88
2019-01-21T04:40:58.060Z,66.88
2019-01-21T04:41:58.332Z,66.69
2019-01-21T04:42:58.346Z,66.88
2019-01-21T04:43:58.096Z,66.78
2019-01-21T04:44:58.368Z,66.69
2019-01-21T04:45:58.430Z,66.88
2019-01-21T04:46:58.147Z,66.88
2019-01-21T04:47:58.409Z,66.69
2019-01-21T04:48:58.695Z,66.5
2019-01-21T04:49:58.182Z,66.88
2019-01-21T04:50:58.201Z,66.69
2019-01-21T04:51:58.207Z,66.69
2019-01-21T04:52:58.503Z,66.88
2019-01-21T04:53:58.490Z,66.69
2019-01-21T04:54:58.249Z,66.69
2019-01-21T04:55:58.253Z,66.78
2019-01-21T04:56:58.688Z,66.78
2019-01-21T04:57:58.291Z,66.88
2019-01-21T04:58:58.300Z,66.88
2019-01-21T04:59:58.576Z,66.88
2019-01-21T05:00:58.320Z,66.69
2019-01-21T05:01:58.595Z,66.69
2019-01-21T05:02:58.611Z,66.69
2019-01-21T05:03:58.365Z,66.5
2019-01-21T05:04:58.637Z,66.69
2019-01-21T05:05:58.697Z,66.78
2019-01-21T05:06:58.405Z,66.59
2019-01-21T05:07:58.676Z,66.69
2019-01-21T05:08:58.690Z,66.5
2019-01-21T05:09:58.441Z,66.88
2019-01-21T05:10:58.722Z,66.12
2019-01-21T05:11:58.466Z,66.41
2019-01-21T05:12:58.487Z,66.59
2019-01-21T05:13:58.818Z,66.12
2019-01-21T05:14:58.763Z,66.22
2019-01-21T05:15:58.518Z,66.22
2019-01-21T05:16:58.535Z,66.22
2019-01-21T05:17:58.539Z,66.22
2019-01-21T05:18:58.556Z,66.22
2019-01-21T05:19:58.832Z,66.22
2019-01-21T05:20:58.587Z,66.22
2019-01-21T05:21:58.868Z,66.22
2019-01-21T05:22:58.606Z,66.12
2019-01-21T05:23:58.618Z,66.12
2019-01-21T05:24:58.902Z,66.12
2019-01-21T05:25:58.904Z,66.31
2019-01-21T05:26:58.665Z,66.31
2019-01-21T05:27:58.942Z,66.09
2019-01-21T05:28:58.953Z,66.41
2019-01-21T05:29:58.961Z,66.22
2019-01-21T05:30:58.929Z,66.41
2019-01-21T05:31:58.728Z,66.22
2019-01-21T05:32:58.740Z,66.22
2019-01-21T05:33:58.755Z,66.22
2019-01-21T05:34:59.022Z,66.22
2019-01-21T05:35:59.034Z,66.41
2019-01-21T05:36:58.787Z,66.22
2019-01-21T05:37:58.832Z,66.22
2019-01-21T05:38:59.065Z,66.31
2019-01-21T05:39:59.114Z,66.31
2019-01-21T05:40:59.097Z,66.22
2019-01-21T05:41:58.851Z,66.69
2019-01-21T05:42:58.860Z,66.41
2019-01-21T05:43:58.875Z,66.12
2019-01-21T05:44:58.885Z,66.41
2019-01-21T05:45:58.899Z,66.12
2019-01-21T05:46:58.915Z,66.22
2019-01-21T05:47:58.928Z,66.5
2019-01-21T05:48:59.208Z,66.41
2019-01-21T05:49:59.207Z,66.12
2019-01-21T05:50:58.970Z,66.78
2019-01-21T05:51:59.265Z,66.12
2019-01-21T05:52:59.258Z,66.59
2019-01-21T05:53:59.006Z,66.22
2019-01-21T05:54:59.022Z,66.59
2019-01-21T05:55:59.288Z,66.59
2019-01-21T05:56:59.300Z,66.31
2019-01-21T05:57:59.053Z,66.59
2019-01-21T05:58:59.323Z,66.59
2019-01-21T05:59:59.083Z,66.12
2019-01-21T06:00:59.126Z,66.41
2019-01-21T06:01:59.360Z,66.22
2019-01-21T06:02:59.118Z,66.18
2019-01-21T06:03:59.402Z,65.99
2019-01-21T06:04:59.402Z,66.18
2019-01-21T06:05:59.416Z,66.22
2019-01-21T06:06:59.166Z,66.18
2019-01-21T06:07:59.442Z,66.03
2019-01-21T06:08:59.196Z,66.03
2019-01-21T06:09:59.471Z,66.12
2019-01-21T06:10:59.222Z,66.37
2019-01-21T06:11:59.246Z,66.41
2019-01-21T06:12:59.508Z,66.41
2019-01-21T06:13:59.258Z,66.37
2019-01-21T06:14:59.529Z,66.28
2019-01-21T06:15:59.293Z,66.18
2019-01-21T06:16:59.569Z,66.18
2019-01-21T06:17:59.323Z,66.5
2019-01-21T06:19:00.127Z,66.12
2019-01-21T06:19:59.599Z,66.37
2019-01-21T06:20:59.355Z,66.09
2019-01-21T06:21:59.640Z,66.59
2019-01-21T06:22:59.649Z,66.75
2019-01-21T06:23:59.396Z,66.18
2019-01-21T06:24:59.402Z,66.09
2019-01-21T06:25:59.674Z,66.75
2019-01-21T06:26:59.429Z,66.18
2019-01-21T06:27:59.709Z,66.28
2019-01-21T06:28:59.713Z,66.47
2019-01-21T06:29:59.463Z,66.18
2019-01-21T06:30:59.736Z,66.18
2019-01-21T06:31:59.495Z,66.37
2019-01-21T06:32:59.507Z,66.47
2019-01-21T06:33:59.519Z,66.28
2019-01-21T06:34:59.814Z,66.09
2019-01-21T06:35:59.805Z,66.28
2019-01-21T06:36:59.557Z,66.47
2019-01-21T06:37:59.824Z,66.09
2019-01-21T06:38:59.839Z,66.18
2019-01-21T06:39:59.592Z,66.18
2019-01-21T06:40:59.613Z,66.28
2019-01-21T06:41:59.618Z,66.37
2019-01-21T06:42:59.637Z,66.18
2019-01-21T06:43:59.903Z,66.37
2019-01-21T06:44:59.918Z,66.28
2019-01-21T06:45:59.675Z,66.75
2019-01-21T06:46:59.688Z,66.56
2019-01-21T06:47:59.970Z,66.56
2019-01-21T06:49:06.767Z,66.75
2019-01-21T06:50:00.017Z,66.28
2019-01-21T06:50:59.734Z,66.56
2019-01-21T06:52:00.018Z,66.65
2019-01-21T06:52:59.769Z,66.18
2019-01-21T06:53:59.777Z,66.47
2019-01-21T06:54:59.790Z,66.18
2019-01-21T06:55:59.807Z,66.18
2019-01-21T06:56:59.814Z,66.56
2019-01-21T06:57:59.824Z,66.18
2019-01-21T06:59:00.099Z,66.56
2019-01-21T06:59:59.855Z,66.65
2019-01-21T07:01:00.128Z,66.65
2019-01-21T07:01:59.880Z,66.09
2019-01-21T07:02:59.891Z,66.37
2019-01-21T07:03:59.903Z,66.41
2019-01-21T07:05:00.279Z,66.69
2019-01-21T07:05:59.932Z,66.37
2019-01-21T07:07:00.204Z,66.56
2019-01-21T07:07:59.954Z,66.37
2019-01-21T07:08:59.968Z,66.37
2019-01-21T07:09:59.981Z,66.56
2019-01-21T07:10:59.992Z,66.56
2019-01-21T07:12:00.279Z,66.56
2019-01-21T07:13:00.278Z,66.56
2019-01-21T07:14:00.028Z,66.65
2019-01-21T07:15:00.301Z,66.65
2019-01-21T07:16:00.063Z,66.47
2019-01-21T07:17:00.326Z,66.47
2019-01-21T07:18:00.351Z,66.56
2019-01-21T07:19:00.357Z,66.28
2019-01-21T07:20:00.163Z,66.56
2019-01-21T07:21:00.381Z,66.31
2019-01-21T07:22:00.395Z,66.18
2019-01-21T07:23:00.148Z,66.37
2019-01-21T07:24:00.416Z,66.18
2019-01-21T07:25:00.208Z,66.37
2019-01-21T07:26:00.180Z,66.28
2019-01-21T07:27:00.454Z,66.18
2019-01-21T07:28:00.467Z,66.41
2019-01-21T07:29:00.221Z,66.47
2019-01-21T07:30:00.496Z,66.37
2019-01-21T07:31:00.506Z,65.93
2019-01-21T07:32:00.339Z,66.22
2019-01-21T07:33:00.285Z,66.03
2019-01-21T07:34:00.549Z,65.93
2019-01-21T07:35:00.298Z,66.18
2019-01-21T07:36:00.588Z,66.18
2019-01-21T07:37:00.321Z,66.09
2019-01-21T07:38:00.363Z,66.12
2019-01-21T07:39:00.608Z,66.09
2019-01-21T07:40:00.366Z,66.09
2019-01-21T07:41:00.381Z,66.09
2019-01-21T07:42:00.648Z,66.37
2019-01-21T07:43:00.663Z,65.9
2019-01-21T07:44:00.415Z,66.18
2019-01-21T07:45:00.426Z,66.03
2019-01-21T07:46:00.443Z,66.09
2019-01-21T07:47:00.458Z,65.84
2019-01-21T07:48:00.465Z,65.93
2019-01-21T07:49:00.484Z,66.12
2019-01-21T07:50:00.762Z,65.93
2019-01-21T07:51:00.760Z,66.12
2019-01-21T07:52:00.527Z,66.03
2019-01-21T07:53:00.526Z,66.03
2019-01-21T07:54:00.799Z,66.03
2019-01-21T07:55:00.567Z,66.03
2019-01-21T07:56:00.567Z,66.22
2019-01-21T07:57:00.842Z,66.41
2019-01-21T07:58:00.596Z,66.22
2019-01-21T07:59:00.608Z,66.22
2019-01-21T08:00:00.625Z,66.41
2019-01-21T08:01:00.633Z,65.46
2019-01-21T08:02:00.655Z,65.74
2019-01-21T08:03:00.930Z,65.74
2019-01-21T08:04:00.670Z,65.55
2019-01-21T08:05:00.683Z,65.74
2019-01-21T08:06:00.956Z,65.65
2019-01-21T08:07:01.236Z,65.74
2019-01-21T08:08:00.720Z,65.84
2019-01-21T08:09:00.994Z,65.84
2019-01-21T08:10:00.752Z,65.93
2019-01-21T08:11:00.764Z,65.55
2019-01-21T08:12:00.773Z,66.12
2019-01-21T08:13:01.054Z,66.22
2019-01-21T08:14:01.062Z,65.55
2019-01-21T08:15:01.068Z,65.46
2019-01-21T08:16:00.822Z,65.74
2019-01-21T08:17:00.847Z,65.55
2019-01-21T08:18:00.852Z,65.93
2019-01-21T08:19:01.135Z,65.93
2019-01-21T08:20:01.147Z,65.93
2019-01-21T08:21:00.886Z,65.74
2019-01-21T08:22:00.908Z,65.74
2019-01-21T08:23:01.957Z,65.74
2019-01-21T08:24:00.926Z,65.55
2019-01-21T08:25:01.206Z,65.55
2019-01-21T08:26:00.954Z,65.17
2019-01-21T08:27:01.224Z,65.08
2019-01-21T08:28:00.986Z,64.89
2019-01-21T08:29:01.251Z,65.17
2019-01-21T08:30:01.004Z,65.46
2019-01-21T08:31:01.014Z,65.17
2019-01-21T08:32:01.291Z,65.08
2019-01-21T08:33:01.043Z,65.27
2019-01-21T08:34:01.322Z,64.89
2019-01-21T08:35:01.068Z,64.98
2019-01-21T08:36:01.355Z,64.79
2019-01-21T08:37:01.094Z,64.7
2019-01-21T08:38:01.364Z,64.7
2019-01-21T08:39:01.120Z,64.51
2019-01-21T08:40:01.406Z,64.98
2019-01-21T08:41:01.146Z,64.7
2019-01-21T08:42:01.417Z,64.54
2019-01-21T08:43:01.432Z,64.73
2019-01-21T08:44:01.191Z,64.45
2019-01-21T08:45:01.454Z,64.45
2019-01-21T08:46:01.468Z,64.36
2019-01-21T08:47:01.486Z,64.36
2019-01-21T08:48:01.236Z,64.45
2019-01-21T08:49:01.513Z,64.45
2019-01-21T08:50:01.264Z,64.64
2019-01-21T08:51:01.533Z,63.89
2019-01-21T08:52:01.291Z,63.98
2019-01-21T08:53:01.559Z,63.79
2019-01-21T08:54:01.313Z,63.7
2019-01-21T08:55:01.588Z,63.79
2019-01-21T08:56:01.347Z,63.89
2019-01-21T08:57:01.608Z,64.07
2019-01-21T08:58:01.626Z,64.07
2019-01-21T08:59:01.390Z,64.17
2019-01-21T09:00:01.392Z,64.17
2019-01-21T09:01:01.663Z,64.17
2019-01-21T09:02:01.419Z,64.07
2019-01-21T09:03:01.689Z,63.98
2019-01-21T09:04:01.441Z,63.89
2019-01-21T09:05:01.463Z,64.07
2019-01-21T09:06:01.467Z,64.07
2019-01-21T09:07:03.001Z,64.07
2019-01-21T09:08:01.493Z,64.17
2019-01-21T09:09:01.765Z,63.79
2019-01-21T09:10:01.783Z,63.98
2019-01-21T09:11:01.795Z,63.89
2019-01-21T09:12:01.551Z,64.17
2019-01-21T09:13:01.558Z,63.7
2019-01-21T09:14:01.570Z,63.6
2019-01-21T09:15:01.589Z,63.7
2019-01-21T09:16:01.855Z,63.7
2019-01-21T09:17:01.623Z,63.6
2019-01-21T09:18:01.884Z,63.79
2019-01-21T09:19:03.007Z,63.7
2019-01-21T09:20:01.657Z,63.13
2019-01-21T09:21:01.920Z,63.42
2019-01-21T09:22:01.676Z,63.42
2019-01-21T09:23:01.695Z,63.51
2019-01-21T09:24:01.973Z,63.79
2019-01-21T09:25:01.722Z,63.51
2019-01-21T09:26:01.985Z,63.32
2019-01-21T09:27:01.740Z,63.6
2019-01-21T09:28:01.782Z,63.42
2019-01-21T09:29:02.024Z,63.6
2019-01-21T09:30:01.783Z,63.32
2019-01-21T09:31:01.795Z,63.42
2019-01-21T09:32:02.068Z,63.6
2019-01-21T09:33:01.821Z,63.51
2019-01-21T09:34:02.100Z,63.51
2019-01-21T09:35:01.847Z,63.7
2019-01-21T09:36:01.875Z,63.6
2019-01-21T09:37:02.133Z,63.32
2019-01-21T09:38:01.896Z,63.23
2019-01-21T09:39:02.162Z,63.32
2019-01-21T09:40:02.173Z,63.6
2019-01-21T09:41:01.926Z,63.42
2019-01-21T09:42:02.197Z,63.6
2019-01-21T09:43:02.211Z,63.7
2019-01-21T09:44:01.965Z,63.42
2019-01-21T09:45:02.237Z,63.6
2019-01-21T09:46:01.993Z,63.42
2019-01-21T09:47:02.012Z,63.6
2019-01-21T09:48:02.278Z,63.32
2019-01-21T09:49:02.030Z,63.32
2019-01-21T09:50:02.041Z,63.32
2019-01-21T09:51:02.066Z,63.23
2019-01-21T09:52:02.331Z,63.51
2019-01-21T09:53:02.085Z,63.42
2019-01-21T09:54:02.102Z,63.79
2019-01-21T09:55:02.111Z,63.6
2019-01-21T09:56:02.127Z,63.32
2019-01-21T09:57:02.393Z,63.42
2019-01-21T09:58:02.201Z,63.6
2019-01-21T09:59:02.165Z,63.7
2019-01-21T10:00:02.434Z,63.32
2019-01-21T10:01:02.456Z,63.7
2019-01-21T10:02:02.202Z,63.7
2019-01-21T10:03:02.488Z,63.7
2019-01-21T10:04:02.483Z,63.73
2019-01-21T10:05:02.509Z,63.35
2019-01-21T10:06:02.262Z,63.79
2019-01-21T10:07:02.269Z,63.92
2019-01-21T10:08:03.568Z,63.82
2019-01-21T10:09:02.293Z,63.82
2019-01-21T10:10:02.356Z,63.54
2019-01-21T10:11:06.079Z,63.73
2019-01-21T10:12:02.590Z,63.73
2019-01-21T10:13:02.614Z,63.73
2019-01-21T10:14:02.614Z,63.73
2019-01-21T10:15:02.375Z,63.82
2019-01-21T10:16:02.387Z,63.64
2019-01-21T10:17:02.660Z,63.92
2019-01-21T10:18:02.670Z,63.92
2019-01-21T10:19:02.427Z,63.82
2019-01-21T10:20:02.446Z,63.92
2019-01-21T10:21:02.454Z,63.73
2019-01-21T10:22:02.726Z,63.92
2019-01-21T10:23:02.745Z,63.73
2019-01-21T10:24:02.494Z,63.73
2019-01-21T10:25:02.517Z,63.73
2019-01-21T10:26:02.533Z,63.73
2019-01-21T10:27:02.787Z,63.64
2019-01-21T10:28:02.542Z,63.73
2019-01-21T10:29:02.564Z,63.64
2019-01-21T10:30:02.826Z,63.73
2019-01-21T10:31:02.584Z,63.73
2019-01-21T10:32:02.872Z,63.64
2019-01-21T10:33:02.868Z,63.64
2019-01-21T10:34:02.624Z,63.92
2019-01-21T10:35:02.640Z,63.92
2019-01-21T10:36:02.648Z,64.01
2019-01-21T10:37:02.668Z,63.82
2019-01-21T10:38:02.978Z,64.01
2019-01-21T10:39:02.695Z,64.2
2019-01-21T10:40:02.972Z,64.2
2019-01-21T10:41:02.990Z,64.2
2019-01-21T10:42:02.731Z,64.2
2019-01-21T10:43:02.745Z,64.2
2019-01-21T10:44:03.015Z,64.11
2019-01-21T10:45:02.770Z,64.11
2019-01-21T10:46:02.786Z,64.11
2019-01-21T10:47:02.796Z,64.11
2019-01-21T10:48:03.070Z,64.11
2019-01-21T10:49:02.822Z,64.01
2019-01-21T10:50:03.105Z,64.01
2019-01-21T10:51:02.846Z,64.01
2019-01-21T10:52:02.862Z,64.11
2019-01-21T10:53:03.129Z,64.2
2019-01-21T10:54:03.151Z,64.2
2019-01-21T10:55:02.902Z,64.11
2019-01-21T10:56:03.175Z,64.01
2019-01-21T10:57:02.928Z,63.82
2019-01-21T10:58:02.940Z,63.82
2019-01-21T10:59:03.212Z,64.11
2019-01-21T11:00:03.242Z,63.82
2019-01-21T11:01:03.241Z,63.92
2019-01-21T11:02:02.993Z,63.92
2019-01-21T11:03:03.008Z,63.92
2019-01-21T11:04:03.028Z,63.73
2019-01-21T11:05:03.035Z,63.82
2019-01-21T11:06:03.310Z,63.64
2019-01-21T11:07:03.330Z,63.82
2019-01-21T11:08:03.333Z,63.82
2019-01-21T11:09:03.088Z,64.01
2019-01-21T11:10:03.368Z,64.11
2019-01-21T11:11:03.116Z,64.48
2019-01-21T11:12:03.133Z,64.29
2019-01-21T11:13:03.141Z,64.48
2019-01-21T11:14:03.157Z,64.58
2019-01-21T11:15:03.446Z,64.11
2019-01-21T11:16:03.444Z,64.29
2019-01-21T11:17:03.456Z,64.39
2019-01-21T11:18:03.466Z,64.67
2019-01-21T11:19:03.219Z,64.67
2019-01-21T11:20:06.537Z,64.86
2019-01-21T11:21:03.251Z,64.48
2019-01-21T11:22:03.261Z,64.77
2019-01-21T11:23:03.274Z,64.48
2019-01-21T11:24:03.298Z,64.58
2019-01-21T11:25:03.298Z,64.58
2019-01-21T11:26:03.572Z,64.67
2019-01-21T11:27:03.324Z,65.15
2019-01-21T11:28:03.352Z,64.67
2019-01-21T11:29:03.616Z,64.86
2019-01-21T11:30:03.631Z,65.05
2019-01-21T11:31:03.641Z,64.96
2019-01-21T11:32:03.394Z,65.05
2019-01-21T11:33:03.408Z,65.05
2019-01-21T11:34:03.632Z,65.24
2019-01-21T11:35:03.701Z,65.05
2019-01-21T11:36:03.453Z,65.05
2019-01-21T11:37:03.462Z,64.77
2019-01-21T11:38:03.486Z,65.24
2019-01-21T11:39:03.534Z,65.43
2019-01-21T11:40:03.504Z,65.24
2019-01-21T11:41:03.515Z,65.43
2019-01-21T11:42:03.528Z,65.24
2019-01-21T11:43:03.550Z,65.53
2019-01-21T11:44:03.566Z,65.15
2019-01-21T11:45:03.573Z,65.43
2019-01-21T11:46:03.580Z,65.24
2019-01-21T11:47:03.854Z,65.24
2019-01-21T11:48:03.868Z,65.43
2019-01-21T11:49:03.678Z,65.53
2019-01-21T11:50:06.998Z,65.62
2019-01-21T11:51:03.651Z,65.34
2019-01-21T11:52:03.923Z,65.43
2019-01-21T11:53:03.676Z,65.43
2019-01-21T11:54:03.998Z,65.53
2019-01-21T11:55:03.966Z,65.15
2019-01-21T11:56:03.978Z,65.43
2019-01-21T11:57:03.990Z,65.24
2019-01-21T11:58:03.744Z,65.34
2019-01-21T11:59:03.767Z,65.24
2019-01-21T12:00:03.778Z,65.24
2019-01-21T12:01:04.050Z,65.34
2019-01-21T12:02:03.798Z,65.34
2019-01-21T12:03:03.814Z,65.34
2019-01-21T12:04:04.083Z,65.24
2019-01-21T12:05:03.848Z,65.43
2019-01-21T12:06:04.124Z,65.05
2019-01-21T12:07:04.123Z,65.34
2019-01-21T12:08:03.892Z,65.34
2019-01-21T12:09:03.941Z,65.34
2019-01-21T12:10:03.916Z,65.34
2019-01-21T12:11:04.175Z,65.24
2019-01-21T12:12:03.940Z,65.24
2019-01-21T12:13:03.954Z,65.28
2019-01-21T12:14:04.010Z,65.28
2019-01-21T12:15:03.978Z,65.28
2019-01-21T12:16:03.991Z,65.28
2019-01-21T12:17:03.997Z,65.24
2019-01-21T12:18:04.021Z,65.37
2019-01-21T12:19:04.296Z,65.15
2019-01-21T12:20:04.049Z,65.18
2019-01-21T12:21:04.056Z,65.43
2019-01-21T12:22:04.326Z,65.09
2019-01-21T12:23:04.336Z,65.09
2019-01-21T12:24:04.094Z,65.37
2019-01-21T12:25:04.106Z,65.09
2019-01-21T12:26:04.378Z,65.09
2019-01-21T12:27:04.129Z,65.28
2019-01-21T12:28:04.148Z,65.37
2019-01-21T12:29:04.263Z,65.37
2019-01-21T12:30:04.441Z,65.37
2019-01-21T12:31:04.453Z,65.28
2019-01-21T12:32:04.211Z,65.18
2019-01-21T12:33:04.470Z,65.28
2019-01-21T12:34:04.237Z,65.56
2019-01-21T12:35:04.250Z,65.37
2019-01-21T12:36:04.254Z,65.18
2019-01-21T12:37:04.266Z,65.37
2019-01-21T12:38:04.283Z,65.47
2019-01-21T12:39:04.297Z,65.09
2019-01-21T12:40:04.592Z,64.8
2019-01-21T12:41:04.327Z,65.09
2019-01-21T12:42:04.595Z,65.18
2019-01-21T12:43:04.360Z,65.18
2019-01-21T12:44:04.620Z,65.18
2019-01-21T12:45:04.377Z,65.18
2019-01-21T12:46:04.648Z,64.8
2019-01-21T12:47:04.408Z,64.9
2019-01-21T12:48:04.423Z,64.99
2019-01-21T12:49:04.431Z,64.8
2019-01-21T12:50:04.706Z,64.8
2019-01-21T12:51:04.715Z,65.09
2019-01-21T12:52:04.727Z,65.09
2019-01-21T12:53:04.744Z,65.09
2019-01-21T12:54:04.497Z,64.99
2019-01-21T12:55:04.781Z,65.09